createdAt,value
2018-12-15T00:00:21.303Z,69.67
2018-12-15T00:02:49.453Z,71.33
2018-12-15T00:05:17.717Z,68.07
2018-12-15T00:07:45.913Z,71.03
2018-12-15T00:10:14.052Z,69.97
2018-12-15T00:12:42.170Z,68.00
2018-12-15T00:15:10.453Z,76.30
2018-12-15T00:17:38.588Z,73.57
2018-12-15T00:20:07.556Z,76.10
2018-12-15T00:22:35.946Z,67.13
2018-12-15T00:25:04.426Z,73.73
2018-12-15T00:27:32.620Z,75.50
2018-12-15T00:30:00.823Z,69.90
2018-12-15T00:32:29.038Z,69.30
2018-12-15T00:34:57.169Z,76.80
2018-12-15T00:37:25.365Z,74.57
2018-12-15T00:39:53.501Z,69.83
2018-12-15T00:42:32.343Z,75.00
2018-12-15T00:45:00.690Z,71.93
2018-12-15T00:47:29.680Z,67.13
2018-12-15T00:49:59.877Z,80.00
2018-12-15T00:52:29.020Z,80.30
2018-12-15T00:54:57.162Z,75.40
2018-12-15T00:57:25.283Z,67.83
2018-12-15T00:59:53.404Z,74.77
2018-12-15T01:02:21.581Z,73.03
2018-12-15T01:04:49.848Z,71.20
2018-12-15T01:07:18.055Z,66.07
2018-12-15T01:09:46.157Z,83.77
2018-12-15T01:12:14.281Z,69.90
2018-12-15T01:14:42.376Z,74.40
2018-12-15T01:17:10.661Z,66.50
2018-12-15T01:19:38.783Z,68.47
2018-12-15T01:22:07.054Z,73.13
2018-12-15T01:24:35.175Z,64.50
2018-12-15T01:27:03.295Z,76.97
2018-12-15T01:29:31.472Z,71.40
2018-12-15T01:31:59.777Z,77.67
2018-12-15T01:34:27.962Z,69.10
2018-12-15T01:36:56.077Z,75.20
2018-12-15T01:39:24.170Z,68.90
2018-12-15T01:41:52.353Z,75.80
2018-12-15T01:44:20.454Z,72.13
2018-12-15T01:46:48.627Z,71.50
2018-12-15T01:49:16.798Z,70.60
2018-12-15T01:51:44.973Z,77.40
2018-12-15T01:54:13.377Z,69.97
2018-12-15T01:56:41.505Z,72.53
2018-12-15T01:59:16.408Z,69.37
2018-12-15T02:01:44.721Z,67.20
2018-12-15T02:04:12.860Z,68.40
2018-12-15T02:06:41.136Z,68.30
2018-12-15T02:09:09.510Z,69.20
2018-12-15T02:11:37.642Z,84.13
2018-12-15T02:14:05.778Z,76.33
2018-12-15T02:16:34.010Z,70.93
2018-12-15T02:19:02.154Z,70.87
2018-12-15T02:21:30.281Z,79.30
2018-12-15T02:23:58.435Z,66.33
2018-12-15T02:26:26.576Z,68.30
2018-12-15T02:28:54.701Z,74.80
2018-12-15T02:31:23.965Z,74.30
2018-12-15T02:33:52.394Z,75.43
2018-12-15T02:36:20.809Z,75.30
2018-12-15T02:38:49.188Z,73.87
2018-12-15T02:41:17.373Z,72.07
2018-12-15T02:43:45.564Z,77.20
2018-12-15T02:46:13.686Z,77.10
2018-12-15T02:48:41.794Z,79.57
2018-12-15T02:51:10.037Z,74.90
2018-12-15T02:53:38.125Z,70.97
2018-12-15T02:56:06.251Z,79.37
2018-12-15T02:58:34.423Z,76.73
2018-12-15T03:01:02.586Z,77.57
2018-12-15T03:03:30.832Z,69.57
2018-12-15T03:05:59.001Z,68.57
2018-12-15T03:08:27.165Z,77.50
2018-12-15T03:10:55.401Z,66.20
2018-12-15T03:13:23.628Z,74.90
2018-12-15T03:15:51.806Z,73.40
2018-12-15T03:18:19.997Z,68.67
2018-12-15T03:21:00.610Z,73.17
2018-12-15T03:23:28.705Z,77.67
2018-12-15T03:25:57.395Z,77.77
2018-12-15T03:28:25.569Z,72.87
2018-12-15T03:30:53.691Z,70.87
2018-12-15T03:33:21.953Z,79.23
2018-12-15T03:35:50.255Z,79.13
2018-12-15T03:38:18.504Z,89.93
2018-12-15T03:40:46.617Z,81.83
2018-12-15T03:43:14.778Z,76.93
2018-12-15T03:45:42.874Z,73.27
2018-12-15T03:48:10.983Z,74.10
2018-12-15T03:50:39.171Z,73.23
2018-12-15T03:53:07.266Z,79.30
2018-12-15T03:55:35.425Z,80.83
2018-12-15T03:58:03.538Z,81.63
2018-12-15T04:00:31.745Z,77.73
2018-12-15T04:02:59.990Z,79.00
2018-12-15T04:05:28.123Z,81.20
2018-12-15T04:07:56.283Z,71.43
2018-12-15T04:10:24.418Z,74.40
2018-12-15T04:12:52.542Z,67.87
2018-12-15T04:15:22.269Z,69.33
2018-12-15T04:17:50.397Z,71.80
2018-12-15T04:20:18.529Z,68.07
2018-12-15T04:22:46.725Z,72.30
2018-12-15T04:25:14.856Z,70.00
2018-12-15T04:27:42.973Z,65.60
2018-12-15T04:30:11.098Z,67.13
2018-12-15T04:32:45.133Z,67.10
2018-12-15T04:35:09.368Z,60.07
2018-12-15T04:37:37.589Z,65.97
2018-12-15T04:40:07.268Z,55.10
2018-12-15T04:42:35.497Z,61.57
2018-12-15T04:45:03.933Z,62.50
2018-12-15T04:47:32.200Z,55.13
2018-12-15T04:50:00.289Z,59.80
2018-12-15T04:52:28.381Z,57.20
2018-12-15T04:54:56.535Z,52.30
2018-12-15T04:57:24.886Z,49.53
2018-12-15T04:59:52.999Z,53.10
2018-12-15T05:02:21.157Z,48.07
2018-12-15T05:04:49.330Z,46.50
2018-12-15T05:07:17.496Z,51.70
2018-12-15T05:09:45.590Z,49.27
2018-12-15T05:12:13.758Z,46.10
2018-12-15T05:14:41.987Z,53.40
2018-12-15T05:17:10.162Z,45.87
2018-12-15T05:19:38.417Z,51.30
2018-12-15T05:22:06.837Z,47.27
2018-12-15T05:24:34.942Z,47.50
2018-12-15T05:27:03.103Z,46.40
2018-12-15T05:29:31.201Z,47.40
2018-12-15T05:31:59.463Z,43.70
2018-12-15T05:34:27.686Z,41.07
2018-12-15T05:36:55.803Z,43.07
2018-12-15T05:39:24.086Z,45.53
2018-12-15T05:41:52.245Z,45.57
2018-12-15T05:44:20.451Z,45.00
2018-12-15T05:46:49.169Z,40.17
2018-12-15T05:49:17.422Z,42.70
2018-12-15T05:51:45.551Z,41.53
2018-12-15T05:54:13.751Z,40.20
2018-12-15T05:56:41.957Z,44.63
2018-12-15T05:59:10.083Z,38.80
2018-12-15T06:01:38.224Z,42.10
2018-12-15T06:04:06.365Z,39.23
2018-12-15T06:06:34.492Z,39.30
2018-12-15T06:09:03.069Z,46.27
2018-12-15T06:11:31.299Z,34.30
2018-12-15T06:13:59.432Z,32.70
2018-12-15T06:16:27.938Z,37.60
2018-12-15T06:18:56.078Z,34.03
2018-12-15T06:21:24.406Z,35.83
2018-12-15T06:23:52.525Z,36.47
2018-12-15T06:26:20.646Z,34.27
2018-12-15T06:28:48.769Z,35.00
2018-12-15T06:31:17.056Z,33.87
2018-12-15T06:33:45.179Z,33.00
2018-12-15T06:36:13.392Z,36.13
2018-12-15T06:38:41.616Z,33.30
2018-12-15T06:41:09.757Z,36.47
2018-12-15T06:43:38.234Z,35.73
2018-12-15T06:46:06.651Z,38.23
2018-12-15T06:48:38.093Z,39.13
2018-12-15T06:51:05.049Z,39.30
2018-12-15T06:53:33.213Z,36.07
2018-12-15T06:56:01.358Z,35.60
2018-12-15T06:58:29.534Z,39.90
2018-12-15T07:00:57.686Z,32.37
2018-12-15T07:03:36.062Z,35.50
2018-12-15T07:06:04.350Z,38.20
2018-12-15T07:08:32.583Z,35.60
2018-12-15T07:11:00.725Z,39.77
2018-12-15T07:13:28.910Z,39.03
2018-12-15T07:15:57.202Z,33.37
2018-12-15T07:18:25.449Z,44.47
2018-12-15T07:20:53.594Z,32.47
2018-12-15T07:23:21.724Z,40.23
2018-12-15T07:25:50.045Z,34.10
2018-12-15T07:28:18.259Z,40.93
2018-12-15T07:30:46.401Z,38.63
2018-12-15T07:33:14.524Z,37.40
2018-12-15T07:35:42.736Z,47.13
2018-12-15T07:38:10.973Z,36.30
2018-12-15T07:40:39.093Z,40.07
2018-12-15T07:43:07.232Z,34.73
2018-12-15T07:45:35.359Z,36.83
2018-12-15T07:48:03.549Z,41.00
2018-12-15T07:50:31.683Z,41.93
2018-12-15T07:52:59.843Z,38.53
2018-12-15T07:55:27.973Z,35.43
2018-12-15T07:57:56.115Z,38.70
2018-12-15T08:00:24.319Z,41.97
2018-12-15T08:02:52.458Z,39.57
2018-12-15T08:05:20.601Z,41.13
2018-12-15T08:07:48.747Z,45.67
2018-12-15T08:10:21.274Z,45.63
2018-12-15T08:12:53.639Z,38.43
2018-12-15T08:15:21.765Z,37.80
2018-12-15T08:17:50.034Z,37.33
2018-12-15T08:20:18.391Z,38.00
2018-12-15T08:22:46.533Z,39.80
2018-12-15T08:25:14.662Z,36.00
2018-12-15T08:27:42.882Z,41.53
2018-12-15T08:30:11.506Z,40.33
2018-12-15T08:32:39.654Z,44.60
2018-12-15T08:35:07.937Z,40.30
2018-12-15T08:37:36.133Z,45.77
2018-12-15T08:40:04.735Z,42.63
2018-12-15T08:42:32.878Z,41.33
2018-12-15T08:45:01.102Z,40.57
2018-12-15T08:47:29.430Z,43.97
2018-12-15T08:49:57.728Z,42.83
2018-12-15T08:52:26.026Z,40.47
2018-12-15T08:54:54.206Z,42.50
2018-12-15T08:57:24.849Z,37.93
2018-12-15T08:59:53.596Z,36.17
2018-12-15T09:02:22.031Z,41.97
2018-12-15T09:04:50.261Z,48.37
2018-12-15T09:07:18.463Z,37.93
2018-12-15T09:09:46.629Z,51.10
2018-12-15T09:12:14.906Z,33.33
2018-12-15T09:14:46.963Z,44.83
2018-12-15T09:17:15.301Z,41.07
2018-12-15T09:19:43.429Z,41.27
2018-12-15T09:22:11.760Z,35.97
2018-12-15T09:24:40.082Z,39.93
2018-12-15T09:27:08.199Z,39.20
2018-12-15T09:29:36.334Z,41.00
2018-12-15T09:32:04.547Z,42.50
2018-12-15T09:34:32.753Z,42.53
2018-12-15T09:37:00.970Z,40.83
2018-12-15T09:39:29.193Z,41.53
2018-12-15T09:41:57.374Z,40.47
2018-12-15T09:44:25.478Z,40.97
2018-12-15T09:46:53.635Z,46.10
2018-12-15T09:49:21.870Z,41.00
2018-12-15T09:51:50.048Z,42.83
2018-12-15T09:54:18.291Z,43.50
2018-12-15T09:56:46.527Z,42.53
2018-12-15T09:59:14.723Z,45.43
2018-12-15T10:01:42.951Z,46.93
2018-12-15T10:04:11.101Z,38.53
2018-12-15T10:06:39.284Z,43.00
2018-12-15T10:09:07.712Z,37.83
2018-12-15T10:11:36.275Z,38.40
2018-12-15T10:14:04.598Z,37.13
2018-12-15T10:16:32.770Z,40.70
2018-12-15T10:19:00.964Z,36.80
2018-12-15T10:21:29.215Z,39.50
2018-12-15T10:23:57.393Z,35.37
2018-12-15T10:26:25.658Z,38.27
2018-12-15T10:28:53.745Z,39.27
2018-12-15T10:31:27.353Z,33.83
2018-12-15T10:33:55.526Z,39.80
2018-12-15T10:36:23.779Z,36.17
2018-12-15T10:38:51.881Z,35.00
2018-12-15T10:41:20.127Z,35.40
2018-12-15T10:43:48.267Z,39.73
2018-12-15T10:46:16.474Z,33.60
2018-12-15T10:48:44.686Z,38.40
2018-12-15T10:51:12.880Z,39.70
2018-12-15T10:53:41.013Z,41.27
2018-12-15T10:56:09.243Z,39.27
2018-12-15T10:58:37.441Z,34.43
2018-12-15T11:01:11.253Z,39.10
2018-12-15T11:03:46.486Z,40.67
2018-12-15T11:06:15.338Z,36.60
2018-12-15T11:08:43.486Z,40.17
2018-12-15T11:11:11.687Z,38.03
2018-12-15T11:13:39.808Z,41.27
2018-12-15T11:16:07.938Z,34.20
2018-12-15T11:18:36.090Z,36.90
2018-12-15T11:21:04.290Z,37.00
2018-12-15T11:23:32.511Z,38.53
2018-12-15T11:26:00.662Z,34.07
2018-12-15T11:28:28.800Z,41.10
2018-12-15T11:30:57.123Z,38.40
2018-12-15T11:33:25.320Z,38.00
2018-12-15T11:35:53.537Z,43.30
2018-12-15T11:38:21.721Z,43.53
2018-12-15T11:40:50.006Z,41.40
2018-12-15T11:43:18.492Z,40.67
2018-12-15T11:45:46.792Z,42.03
2018-12-15T11:48:15.022Z,35.80
2018-12-15T11:50:43.177Z,38.27
2018-12-15T11:53:11.276Z,42.87
2018-12-15T11:55:39.513Z,31.57
2018-12-15T11:58:07.648Z,32.70
2018-12-15T12:00:35.853Z,39.37
2018-12-15T12:03:04.099Z,39.67
2018-12-15T12:05:32.269Z,37.43
2018-12-15T12:08:00.382Z,36.07
2018-12-15T12:10:28.662Z,35.03
2018-12-15T12:12:56.911Z,35.93
2018-12-15T12:15:28.248Z,36.13
2018-12-15T12:17:56.409Z,37.27
2018-12-15T12:20:24.642Z,31.80
2018-12-15T12:22:52.738Z,33.00
2018-12-15T12:25:20.969Z,30.13
2018-12-15T12:27:49.205Z,34.70
2018-12-15T12:30:17.475Z,33.77
2018-12-15T12:32:45.550Z,35.00
2018-12-15T12:35:13.779Z,32.13
2018-12-15T12:37:42.055Z,33.87
2018-12-15T12:40:10.269Z,30.73
2018-12-15T12:42:38.456Z,33.30
2018-12-15T12:45:06.796Z,32.30
2018-12-15T12:47:34.955Z,33.93
2018-12-15T12:50:03.160Z,34.00
2018-12-15T12:52:31.258Z,33.93
2018-12-15T12:54:59.475Z,37.60
2018-12-15T12:57:27.599Z,35.87
2018-12-15T12:59:55.691Z,36.03
2018-12-15T13:02:23.923Z,34.00
2018-12-15T13:04:52.217Z,36.10
2018-12-15T13:07:20.408Z,30.90
2018-12-15T13:09:48.565Z,31.53
2018-12-15T13:12:16.727Z,32.37
2018-12-15T13:14:44.830Z,32.90
2018-12-15T13:17:13.011Z,33.93
2018-12-15T13:19:41.283Z,33.77
2018-12-15T13:22:09.457Z,34.77
2018-12-15T13:24:37.632Z,33.07
2018-12-15T13:27:05.950Z,31.73
2018-12-15T13:29:34.149Z,32.20
2018-12-15T13:32:02.364Z,37.93
2018-12-15T13:34:30.582Z,46.47
2018-12-15T13:37:07.121Z,44.00
2018-12-15T13:39:35.365Z,45.67
2018-12-15T13:42:03.610Z,36.13
2018-12-15T13:44:31.714Z,30.10
2018-12-15T13:46:59.883Z,32.67
2018-12-15T13:49:28.110Z,38.37
2018-12-15T13:51:56.321Z,31.90
2018-12-15T13:54:24.427Z,30.73
2018-12-15T13:56:52.661Z,32.37
2018-12-15T13:59:20.770Z,38.77
2018-12-15T14:01:48.993Z,37.43
2018-12-15T14:04:17.201Z,28.20
2018-12-15T14:06:45.375Z,23.83
2018-12-15T14:09:13.476Z,27.33
2018-12-15T14:11:41.708Z,20.60
2018-12-15T14:14:09.938Z,23.53
2018-12-15T14:16:38.162Z,21.07
2018-12-15T14:19:06.315Z,29.40
2018-12-15T14:21:34.476Z,26.70
2018-12-15T14:24:02.723Z,31.03
2018-12-15T14:26:30.961Z,34.23
2018-12-15T14:28:59.070Z,39.30
2018-12-15T14:31:27.307Z,38.40
2018-12-15T14:33:55.553Z,42.30
2018-12-15T14:36:23.770Z,39.90
2018-12-15T14:38:51.934Z,38.93
2018-12-15T14:41:20.082Z,43.00
2018-12-15T14:43:48.252Z,39.43
2018-12-15T14:46:16.424Z,49.97
2018-12-15T14:48:44.632Z,42.83
2018-12-15T14:51:12.766Z,47.63
2018-12-15T14:53:41.023Z,41.57
2018-12-15T14:56:09.151Z,40.57
2018-12-15T14:58:37.352Z,38.00
2018-12-15T15:01:05.467Z,37.90
2018-12-15T15:03:33.592Z,39.23
2018-12-15T15:06:01.709Z,39.40
2018-12-15T15:08:29.826Z,41.13
2018-12-15T15:10:58.224Z,47.93
2018-12-15T15:13:26.408Z,43.57
2018-12-15T15:15:54.665Z,39.63
2018-12-15T15:18:22.756Z,40.53
2018-12-15T15:20:50.932Z,41.20
2018-12-15T15:23:19.036Z,38.73
2018-12-15T15:25:47.212Z,40.90
2018-12-15T15:28:15.333Z,42.90
2018-12-15T15:30:43.432Z,45.67
2018-12-15T15:33:11.549Z,44.40
2018-12-15T15:35:59.941Z,42.80
2018-12-15T15:38:28.187Z,31.10
2018-12-15T15:40:56.323Z,39.90
2018-12-15T15:43:24.497Z,39.83
2018-12-15T15:45:52.699Z,41.07
2018-12-15T15:48:20.896Z,40.90
2018-12-15T15:50:49.008Z,38.10
2018-12-15T15:53:17.205Z,35.60
2018-12-15T16:02:40.090Z,43.67
2018-12-15T16:05:08.399Z,39.90
2018-12-15T16:07:36.509Z,46.87
2018-12-15T16:10:08.748Z,47.47
2018-12-15T16:12:37.032Z,38.63
2018-12-15T16:15:06.110Z,37.80
2018-12-15T16:17:34.542Z,43.70
2018-12-15T16:20:02.801Z,46.53
2018-12-15T16:22:30.942Z,39.13
2018-12-15T16:24:59.101Z,48.30
2018-12-15T16:27:27.306Z,43.13
2018-12-15T16:29:55.529Z,45.40
2018-12-15T16:32:23.775Z,44.63
2018-12-15T16:34:51.969Z,43.17
2018-12-15T16:37:20.293Z,45.43
2018-12-15T16:39:48.565Z,46.10
2018-12-15T16:42:16.780Z,46.80
2018-12-15T16:44:44.905Z,40.07
2018-12-15T16:47:13.037Z,39.10
2018-12-15T16:49:41.751Z,43.57
2018-12-15T16:52:09.960Z,42.97
2018-12-15T16:54:38.300Z,43.00
2018-12-15T16:57:06.591Z,46.70
2018-12-15T16:59:34.767Z,42.27
2018-12-15T17:02:02.982Z,40.97
2018-12-15T17:04:31.110Z,49.30
2018-12-15T17:06:59.238Z,45.00
2018-12-15T17:09:27.367Z,39.50
2018-12-15T17:11:55.497Z,44.20
2018-12-15T17:14:23.727Z,45.77
2018-12-15T17:16:51.995Z,47.63
2018-12-15T17:19:20.280Z,40.87
2018-12-15T17:21:48.412Z,37.03
2018-12-15T17:24:16.553Z,33.90
2018-12-15T17:26:45.248Z,26.10
2018-12-15T17:29:13.460Z,22.20
2018-12-15T17:31:41.660Z,21.27
2018-12-15T17:34:09.940Z,22.83
2018-12-15T17:36:38.319Z,27.00
2018-12-15T17:39:07.784Z,22.52
2018-12-15T17:41:36.060Z,21.63
2018-12-15T17:44:04.311Z,20.17
2018-12-15T17:46:32.578Z,21.00
2018-12-15T17:49:00.815Z,24.27
2018-12-15T17:51:29.094Z,23.93
2018-12-15T17:53:57.317Z,26.53
2018-12-15T17:56:25.563Z,20.93
2018-12-15T17:58:53.679Z,24.87
2018-12-15T18:01:21.946Z,21.93
2018-12-15T18:03:50.068Z,24.23
2018-12-15T18:06:18.583Z,20.57
2018-12-15T18:08:46.783Z,23.53
2018-12-15T18:11:14.969Z,20.93
2018-12-15T18:13:43.227Z,24.67
2018-12-15T18:16:11.352Z,20.97
2018-12-15T18:18:39.483Z,18.20
2018-12-15T18:21:09.969Z,20.37
2018-12-15T18:23:37.826Z,18.80
2018-12-15T18:26:06.083Z,20.10
2018-12-15T18:28:34.299Z,22.70
2018-12-15T18:31:02.441Z,21.30
2018-12-15T18:33:36.873Z,22.70
2018-12-15T18:36:00.754Z,20.30
2018-12-15T18:38:28.947Z,24.57
2018-12-15T18:40:57.205Z,23.03
2018-12-15T18:43:25.335Z,23.87
2018-12-15T18:45:53.522Z,23.10
2018-12-15T18:48:21.780Z,24.27
2018-12-15T18:50:50.046Z,26.30
2018-12-15T18:53:19.555Z,22.00
2018-12-15T18:55:47.992Z,23.37
2018-12-15T18:58:16.116Z,23.83
2018-12-15T19:00:44.331Z,28.60
2018-12-15T19:03:12.518Z,26.17
2018-12-15T19:05:40.689Z,26.53
2018-12-15T19:08:08.985Z,23.17
2018-12-15T19:10:37.095Z,23.80
2018-12-15T19:13:05.355Z,24.00
2018-12-15T19:15:33.535Z,21.67
2018-12-15T19:18:01.721Z,21.00
2018-12-15T19:20:29.867Z,26.20
2018-12-15T19:22:58.243Z,24.43
2018-12-15T19:25:26.427Z,30.53
2018-12-15T19:27:54.644Z,24.20
2018-12-15T19:30:22.779Z,29.73
2018-12-15T19:32:50.923Z,22.17
2018-12-15T19:35:19.130Z,23.80
2018-12-15T19:37:47.335Z,26.00
2018-12-15T19:40:15.513Z,24.57
2018-12-15T19:42:43.781Z,25.83
2018-12-15T19:45:11.931Z,27.37
2018-12-15T19:47:40.034Z,24.07
2018-12-15T19:50:08.388Z,22.00
2018-12-15T19:52:36.636Z,24.00
2018-12-15T19:55:05.606Z,24.40
2018-12-15T19:57:33.807Z,20.00
2018-12-15T20:00:02.180Z,21.63
2018-12-15T20:02:30.364Z,22.30
2018-12-15T20:04:58.550Z,23.63
2018-12-15T20:07:26.752Z,21.97
2018-12-15T20:09:54.880Z,20.43
2018-12-15T20:12:23.021Z,21.80
2018-12-15T20:14:51.210Z,21.87
2018-12-15T20:17:19.466Z,19.57
2018-12-15T20:19:47.680Z,23.60
2018-12-15T20:22:15.809Z,24.20
2018-12-15T20:24:43.998Z,23.40
2018-12-15T20:27:12.191Z,23.80
2018-12-15T20:29:40.311Z,24.00
2018-12-15T20:32:08.485Z,21.47
2018-12-15T20:34:36.609Z,20.07
2018-12-15T20:37:04.784Z,19.67
2018-12-15T20:39:32.985Z,24.33
2018-12-15T20:42:01.271Z,25.23
2018-12-15T20:44:29.398Z,25.53
2018-12-15T20:46:57.603Z,25.00
2018-12-15T20:49:25.868Z,23.57
2018-12-15T20:51:55.415Z,21.77
2018-12-15T20:54:23.869Z,25.77
2018-12-15T20:56:52.058Z,22.77
2018-12-15T20:59:20.306Z,22.30
2018-12-15T21:01:48.399Z,24.73
2018-12-15T21:04:16.585Z,23.47
2018-12-15T21:06:44.788Z,22.30
2018-12-15T21:09:12.933Z,22.67
2018-12-15T21:11:41.125Z,22.50
2018-12-15T21:14:09.360Z,20.87
2018-12-15T21:16:37.552Z,24.43
2018-12-15T21:19:05.738Z,24.97
2018-12-15T21:21:33.934Z,22.60
2018-12-15T21:24:02.105Z,24.80
2018-12-15T21:26:30.274Z,29.10
2018-12-15T21:28:58.538Z,26.50
2018-12-15T21:31:26.744Z,31.10
2018-12-15T21:33:54.865Z,31.23
2018-12-15T21:36:22.996Z,31.43
2018-12-15T21:38:51.195Z,33.70
2018-12-15T21:41:19.376Z,36.13
2018-12-15T21:43:47.607Z,32.90
2018-12-15T21:46:15.814Z,38.23
2018-12-15T21:48:44.002Z,32.10
2018-12-15T21:51:12.122Z,31.73
2018-12-15T21:53:40.242Z,33.00
2018-12-15T21:56:08.429Z,34.23
2018-12-15T21:58:36.630Z,32.50
2018-12-15T22:01:04.823Z,34.60
2018-12-15T22:03:32.962Z,34.90
2018-12-15T22:06:01.233Z,31.07
2018-12-15T22:08:29.435Z,31.20
2018-12-15T22:10:57.634Z,28.63
2018-12-15T22:13:26.906Z,28.77
2018-12-15T22:15:55.275Z,31.90
2018-12-15T22:18:23.557Z,30.03
2018-12-15T22:20:51.989Z,31.70
2018-12-15T22:23:20.154Z,29.87
2018-12-15T22:25:48.415Z,28.20
2018-12-15T22:28:16.598Z,30.70
2018-12-15T22:30:44.851Z,32.37
2018-12-15T22:33:12.981Z,35.38
2018-12-15T22:35:41.166Z,32.40
2018-12-15T22:38:09.302Z,28.73
2018-12-15T22:40:37.453Z,28.00
2018-12-15T22:43:05.641Z,24.87
2018-12-15T22:45:33.922Z,29.93
2018-12-15T22:48:02.148Z,32.33
2018-12-15T22:50:30.310Z,27.95
2018-12-15T22:52:58.455Z,28.17
2018-12-15T22:55:26.566Z,31.37
2018-12-15T22:57:54.702Z,29.03
2018-12-15T23:00:23.096Z,32.57
2018-12-15T23:02:51.399Z,26.48
2018-12-15T23:05:21.833Z,22.43
2018-12-15T23:07:49.982Z,26.73
2018-12-15T23:10:18.298Z,26.90
2018-12-15T23:12:46.422Z,29.33
2018-12-15T23:15:14.677Z,28.57
2018-12-15T23:17:42.888Z,27.95
2018-12-15T23:20:11.079Z,28.23
2018-12-15T23:22:39.297Z,31.65
2018-12-15T23:25:07.535Z,27.00
2018-12-15T23:27:35.762Z,27.93
2018-12-15T23:30:05.033Z,26.93
2018-12-15T23:32:33.589Z,33.10
2018-12-15T23:35:01.712Z,36.70
2018-12-15T23:37:29.836Z,28.90
2018-12-15T23:39:58.115Z,29.37
2018-12-15T23:42:26.433Z,30.40
2018-12-15T23:44:56.535Z,28.67
2018-12-15T23:47:24.739Z,27.40
2018-12-15T23:49:52.942Z,33.13
2018-12-15T23:52:23.444Z,28.70
2018-12-15T23:54:51.250Z,30.68
2018-12-15T23:57:19.388Z,32.73
2018-12-15T23:59:47.543Z,39.63
